Antelope, Texas
Current Conditions -  °F | °C
As of 10:10 PM on Sunday 23 Nov 2014 (Local Time) from KRPH Reporting Station
Clear Clear  
Wind Chill:   Ceiling: Unl
Heat Index:   Visibility: 10mi
Dew Point:   Wind: 3mph
Humidity: 71%   Direction: 290°WNW
Pressure: 29.84"   Gusts: NA
Location:  33.4259°N, 98.383°W
Report Text: KRPH 240410Z AUTO 29003KT 10SM CLR 08/03 A2984 RMK AO2 T00800030
Loading
Personal Weather Stations






























Interactive Weather Map New forecast layout! Learn more

10-Day Weather Forecast

Advertisements
Track Severe Weather on mobile